sensor_id;sensor_type;location;lat;lon;timestamp;pressure;altitude;pressure_sealevel;temperature;humidity
27980;BME280;15315;50.836;4.430;2022-12-04T00:00:48;101103.97;;;4.69;100.00
27980;BME280;15315;50.836;4.430;2022-12-04T00:10:49;101110.63;;;5.44;99.28
27980;BME280;15315;50.836;4.430;2022-12-04T00:20:49;101104.28;;;5.47;98.33
27980;BME280;15315;50.836;4.430;2022-12-04T00:30:50;101105.47;;;5.60;96.04
27980;BME280;15315;50.836;4.430;2022-12-04T00:40:51;101103.13;;;5.93;93.22
27980;BME280;15315;50.836;4.430;2022-12-04T00:50:52;101095.13;;;5.91;94.74
27980;BME280;15315;50.836;4.430;2022-12-04T01:01:00;101095.44;;;5.25;95.99
27980;BME280;15315;50.836;4.430;2022-12-04T01:11:04;101087.81;;;5.56;96.09
27980;BME280;15315;50.836;4.430;2022-12-04T01:21:05;101106.00;;;5.48;97.07
27980;BME280;15315;50.836;4.430;2022-12-04T01:31:14;101105.56;;;5.97;93.82
27980;BME280;15315;50.836;4.430;2022-12-04T01:41:18;101093.50;;;5.69;95.07
27980;BME280;15315;50.836;4.430;2022-12-04T01:51:23;101081.50;;;4.97;99.27
27980;BME280;15315;50.836;4.430;2022-12-04T02:01:26;101086.81;;;5.38;97.18
27980;BME280;15315;50.836;4.430;2022-12-04T02:11:43;101093.16;;;5.76;94.98
27980;BME280;15315;50.836;4.430;2022-12-04T02:21:48;101073.50;;;5.17;98.12
27980;BME280;15315;50.836;4.430;2022-12-04T02:42:12;101066.00;;;4.40;100.00
27980;BME280;15315;50.836;4.430;2022-12-04T02:52:18;101051.31;;;5.15;100.00
27980;BME280;15315;50.836;4.430;2022-12-04T03:02:26;101041.75;;;5.70;99.29
27980;BME280;15315;50.836;4.430;2022-12-04T03:12:39;101064.88;;;5.30;100.00
27980;BME280;15315;50.836;4.430;2022-12-04T03:22:43;101045.22;;;4.48;100.00
27980;BME280;15315;50.836;4.430;2022-12-04T03:32:51;101059.34;;;4.28;100.00
27980;BME280;15315;50.836;4.430;2022-12-04T03:43:03;101063.59;;;4.77;100.00
27980;BME280;15315;50.836;4.430;2022-12-04T03:53:11;101053.00;;;4.31;100.00
27980;BME280;15315;50.836;4.430;2022-12-04T04:03:20;101065.09;;;5.46;100.00
27980;BME280;15315;50.836;4.430;2022-12-04T04:13:26;101060.47;;;4.88;100.00
27980;BME280;15315;50.836;4.430;2022-12-04T04:23:49;101066.50;;;4.93;100.00
27980;BME280;15315;50.836;4.430;2022-12-04T04:34:21;101061.88;;;5.18;100.00
27980;BME280;15315;50.836;4.430;2022-12-04T04:44:34;101060.16;;;5.17;100.00
27980;BME280;15315;50.836;4.430;2022-12-04T04:54:38;101052.59;;;5.46;100.00
27980;BME280;15315;50.836;4.430;2022-12-04T05:04:39;101067.31;;;5.36;100.00
27980;BME280;15315;50.836;4.430;2022-12-04T05:14:40;101049.00;;;5.27;100.00
27980;BME280;15315;50.836;4.430;2022-12-04T05:24:40;101038.31;;;4.85;100.00
27980;BME280;15315;50.836;4.430;2022-12-04T05:34:41;101035.66;;;5.06;100.00
27980;BME280;15315;50.836;4.430;2022-12-04T05:44:41;101032.88;;;5.29;100.00
27980;BME280;15315;50.836;4.430;2022-12-04T05:54:41;101020.91;;;5.17;100.00
27980;BME280;15315;50.836;4.430;2022-12-04T06:04:42;101044.53;;;4.64;100.00
27980;BME280;15315;50.836;4.430;2022-12-04T06:14:42;101049.22;;;5.01;100.00
27980;BME280;15315;50.836;4.430;2022-12-04T06:24:43;101051.63;;;5.07;100.00
27980;BME280;15315;50.836;4.430;2022-12-04T06:34:43;101047.13;;;5.09;100.00
27980;BME280;15315;50.836;4.430;2022-12-04T06:44:44;101046.00;;;4.93;100.00
27980;BME280;15315;50.836;4.430;2022-12-04T06:54:44;101048.00;;;4.88;100.00
27980;BME280;15315;50.836;4.430;2022-12-04T07:04:44;101051.09;;;4.34;100.00
27980;BME280;15315;50.836;4.430;2022-12-04T07:14:45;101058.38;;;4.52;100.00
27980;BME280;15315;50.836;4.430;2022-12-04T07:24:45;101064.03;;;5.30;100.00
27980;BME280;15315;50.836;4.430;2022-12-04T07:34:46;101071.03;;;4.91;100.00
27980;BME280;15315;50.836;4.430;2022-12-04T07:44:46;101074.69;;;4.66;100.00
27980;BME280;15315;50.836;4.430;2022-12-04T07:54:46;101082.59;;;4.69;100.00
27980;BME280;15315;50.836;4.430;2022-12-04T08:04:47;101088.69;;;4.95;100.00
27980;BME280;15315;50.836;4.430;2022-12-04T08:14:48;101090.09;;;5.45;100.00
27980;BME280;15315;50.836;4.430;2022-12-04T08:24:49;101089.97;;;4.41;100.00
27980;BME280;15315;50.836;4.430;2022-12-04T08:34:50;101090.78;;;4.65;100.00
27980;BME280;15315;50.836;4.430;2022-12-04T08:44:50;101099.59;;;5.10;100.00
27980;BME280;15315;50.836;4.430;2022-12-04T08:54:51;101097.56;;;4.95;100.00
27980;BME280;15315;50.836;4.430;2022-12-04T09:04:51;101092.63;;;5.48;100.00
27980;BME280;15315;50.836;4.430;2022-12-04T09:14:52;101107.16;;;5.63;100.00
27980;BME280;15315;50.836;4.430;2022-12-04T09:24:52;101108.94;;;5.42;100.00
27980;BME280;15315;50.836;4.430;2022-12-04T09:34:52;101109.19;;;5.76;100.00
27980;BME280;15315;50.836;4.430;2022-12-04T09:55:20;101107.16;;;5.83;96.09
27980;BME280;15315;50.836;4.430;2022-12-04T10:15:53;101108.78;;;6.26;93.90
27980;BME280;15315;50.836;4.430;2022-12-04T10:25:56;101116.81;;;6.05;95.38
27980;BME280;15315;50.836;4.430;2022-12-04T10:35:57;101117.53;;;4.87;98.67
27980;BME280;15315;50.836;4.430;2022-12-04T10:45:58;101104.63;;;4.53;100.00
27980;BME280;15315;50.836;4.430;2022-12-04T11:06:14;101075.63;;;5.89;94.11
27980;BME280;15315;50.836;4.430;2022-12-04T11:26:36;101083.34;;;5.36;93.13
27980;BME280;15315;50.836;4.430;2022-12-04T11:36:41;101087.38;;;4.83;97.71
27980;BME280;15315;50.836;4.430;2022-12-04T11:46:51;101065.00;;;5.88;93.33
27980;BME280;15315;50.836;4.430;2022-12-04T12:38:04;101025.84;;;5.46;91.91
27980;BME280;15315;50.836;4.430;2022-12-04T12:48:23;101007.56;;;5.76;88.35
27980;BME280;15315;50.836;4.430;2022-12-04T12:58:43;101010.22;;;5.76;90.07
27980;BME280;15315;50.836;4.430;2022-12-04T13:29:13;101019.81;;;4.81;89.93
27980;BME280;15315;50.836;4.430;2022-12-04T13:39:47;101011.28;;;5.33;86.91
27980;BME280;15315;50.836;4.430;2022-12-04T14:00:26;101031.44;;;4.58;90.61
27980;BME280;15315;50.836;4.430;2022-12-04T14:10:34;101018.94;;;4.80;92.85
27980;BME280;15315;50.836;4.430;2022-12-04T14:20:36;101005.88;;;5.55;87.40
27980;BME280;15315;50.836;4.430;2022-12-04T14:30:38;101016.59;;;5.74;84.31
27980;BME280;15315;50.836;4.430;2022-12-04T14:40:44;101019.53;;;5.88;85.63
27980;BME280;15315;50.836;4.430;2022-12-04T14:50:59;101026.94;;;5.42;89.44
27980;BME280;15315;50.836;4.430;2022-12-04T15:01:05;101035.34;;;5.54;87.69
27980;BME280;15315;50.836;4.430;2022-12-04T15:11:19;101050.34;;;4.96;94.00
27980;BME280;15315;50.836;4.430;2022-12-04T15:21:39;101052.84;;;4.57;93.48
27980;BME280;15315;50.836;4.430;2022-12-04T15:31:42;101064.06;;;4.43;95.34
27980;BME280;15315;50.836;4.430;2022-12-04T15:41:46;101073.25;;;5.83;89.91
27980;BME280;15315;50.836;4.430;2022-12-04T15:51:47;101066.03;;;5.65;87.52
27980;BME280;15315;50.836;4.430;2022-12-04T16:01:47;101074.63;;;5.72;88.43
27980;BME280;15315;50.836;4.430;2022-12-04T16:12:16;101084.69;;;5.46;87.80
27980;BME280;15315;50.836;4.430;2022-12-04T16:22:20;101083.22;;;5.60;88.45
27980;BME280;15315;50.836;4.430;2022-12-04T16:32:25;101085.13;;;5.16;89.18
27980;BME280;15315;50.836;4.430;2022-12-04T16:42:28;101073.44;;;5.59;88.06
27980;BME280;15315;50.836;4.430;2022-12-04T16:52:28;101078.59;;;5.83;89.06
27980;BME280;15315;50.836;4.430;2022-12-04T17:02:29;101079.66;;;5.79;87.81
27980;BME280;15315;50.836;4.430;2022-12-04T17:12:29;101086.56;;;5.44;89.38
27980;BME280;15315;50.836;4.430;2022-12-04T17:22:30;101102.34;;;4.87;91.30
27980;BME280;15315;50.836;4.430;2022-12-04T17:32:32;101100.38;;;4.70;93.14
27980;BME280;15315;50.836;4.430;2022-12-04T17:42:33;101103.69;;;5.61;90.28
27980;BME280;15315;50.836;4.430;2022-12-04T17:52:34;101122.69;;;5.53;88.53
27980;BME280;15315;50.836;4.430;2022-12-04T18:02:35;101127.41;;;5.06;91.08
27980;BME280;15315;50.836;4.430;2022-12-04T18:12:35;101134.28;;;5.12;91.56
27980;BME280;15315;50.836;4.430;2022-12-04T18:22:35;101124.31;;;5.15;91.08
27980;BME280;15315;50.836;4.430;2022-12-04T18:32:36;101123.41;;;4.95;94.20
27980;BME280;15315;50.836;4.430;2022-12-04T18:42:36;101111.47;;;5.25;94.35
27980;BME280;15315;50.836;4.430;2022-12-04T18:52:37;101120.97;;;5.52;92.47
27980;BME280;15315;50.836;4.430;2022-12-04T19:02:37;101121.72;;;6.16;90.81
27980;BME280;15315;50.836;4.430;2022-12-04T19:12:38;101129.56;;;4.75;100.00
27980;BME280;15315;50.836;4.430;2022-12-04T19:22:39;101139.56;;;4.47;100.00
27980;BME280;15315;50.836;4.430;2022-12-04T19:32:39;101142.72;;;5.44;100.00
27980;BME280;15315;50.836;4.430;2022-12-04T19:42:39;101138.13;;;6.27;97.84
27980;BME280;15315;50.836;4.430;2022-12-04T19:52:40;101150.25;;;6.36;97.35
27980;BME280;15315;50.836;4.430;2022-12-04T20:02:40;101159.72;;;6.24;100.00
27980;BME280;15315;50.836;4.430;2022-12-04T20:12:41;101159.34;;;5.51;100.00
27980;BME280;15315;50.836;4.430;2022-12-04T20:22:41;101166.53;;;5.71;100.00
27980;BME280;15315;50.836;4.430;2022-12-04T20:32:41;101149.16;;;6.21;100.00
27980;BME280;15315;50.836;4.430;2022-12-04T20:42:42;101157.63;;;6.10;100.00
27980;BME280;15315;50.836;4.430;2022-12-04T20:52:42;101159.31;;;6.13;100.00
27980;BME280;15315;50.836;4.430;2022-12-04T21:02:43;101173.28;;;5.99;100.00
27980;BME280;15315;50.836;4.430;2022-12-04T21:12:43;101164.91;;;5.87;100.00
27980;BME280;15315;50.836;4.430;2022-12-04T21:23:02;101173.50;;;6.15;100.00
27980;BME280;15315;50.836;4.430;2022-12-04T21:33:02;101160.56;;;6.04;100.00
27980;BME280;15315;50.836;4.430;2022-12-04T21:43:03;101149.59;;;6.10;100.00
27980;BME280;15315;50.836;4.430;2022-12-04T21:53:03;101141.78;;;6.63;100.00
27980;BME280;15315;50.836;4.430;2022-12-04T22:03:04;101129.47;;;6.41;100.00
27980;BME280;15315;50.836;4.430;2022-12-04T22:13:05;101137.06;;;6.31;100.00
27980;BME280;15315;50.836;4.430;2022-12-04T22:23:05;101145.72;;;5.77;100.00
27980;BME280;15315;50.836;4.430;2022-12-04T22:33:06;101147.16;;;5.66;100.00
27980;BME280;15315;50.836;4.430;2022-12-04T22:43:06;101152.06;;;5.95;100.00
27980;BME280;15315;50.836;4.430;2022-12-04T22:53:07;101162.09;;;5.49;100.00
27980;BME280;15315;50.836;4.430;2022-12-04T23:03:07;101161.31;;;6.28;100.00
27980;BME280;15315;50.836;4.430;2022-12-04T23:13:07;101172.34;;;5.80;100.00
27980;BME280;15315;50.836;4.430;2022-12-04T23:23:08;101180.19;;;5.85;100.00
27980;BME280;15315;50.836;4.430;2022-12-04T23:33:08;101173.34;;;5.98;100.00
27980;BME280;15315;50.836;4.430;2022-12-04T23:43:09;101176.06;;;5.56;100.00
27980;BME280;15315;50.836;4.430;2022-12-04T23:53:09;101164.91;;;5.67;100.00
